Time;durP1;ratioP1;P1;durP2;ratioP2;P2;SDS_P1;SDS_P2;PMS_P1;PMS_P2;Temp;Humidity;BMP_temperature;BMP_pressure;BME280_temperature;BME280_humidity;BME280_pressure;Samples;Min_cycle;Max_cycle;Signal;HPM_P1;HPM_P2
2023/03/13 00:00:55;;;;;;;6.38;0.95;;;;;;;;;;5085657;28;20058;-83
2023/03/13 00:03:21;;;;;;;1.20;0.73;;;;;;;;;;5108398;28;20081;-84
2023/03/13 00:05:46;;;;;;;0.85;0.75;;;;;;;;;;5088750;28;20252;-84
2023/03/13 00:08:12;;;;;;;1.48;0.57;;;;;;;;;;5086396;28;20496;-84
2023/03/13 00:10:40;;;;;;;0.40;0.40;;;;;;;;;;5089203;28;20028;-84
2023/03/13 00:13:08;;;;;;;0.70;0.57;;;;;;;;;;5090962;28;20062;-89
2023/03/13 00:15:34;;;;;;;0.63;0.63;;;;;;;;;;5088409;28;20020;-86
2023/03/13 00:17:59;;;;;;;0.30;0.30;;;;;;;;;;5083321;28;20049;-87
2023/03/13 00:20:25;;;;;;;1.33;1.23;;;;;;;;;;5091539;28;20038;-86
2023/03/13 00:22:51;;;;;;;3.92;1.23;;;;;;;;;;5087176;28;20026;-87
2023/03/13 00:25:16;;;;;;;0.73;0.73;;;;;;;;;;5086150;28;20082;-88
2023/03/13 00:27:42;;;;;;;0.60;0.60;;;;;;;;;;5089682;28;20057;-89
2023/03/13 00:30:08;;;;;;;2.22;1.13;;;;;;;;;;5088245;28;20029;-83
2023/03/13 00:32:33;;;;;;;2.70;0.60;;;;;;;;;;5084412;28;20047;-82
2023/03/13 00:34:59;;;;;;;0.30;0.30;;;;;;;;;;5091668;28;20028;-82
2023/03/13 00:37:24;;;;;;;2.20;0.63;;;;;;;;;;5088953;28;20025;-82
2023/03/13 00:39:49;;;;;;;1.48;1.35;;;;;;;;;;5085868;28;20060;-81
2023/03/13 00:42:15;;;;;;;0.90;0.68;;;;;;;;;;5089946;28;20452;-82
2023/03/13 00:44:40;;;;;;;0.75;0.75;;;;;;;;;;5084411;28;20078;-82
2023/03/13 00:47:06;;;;;;;0.47;0.47;;;;;;;;;;5084742;28;20032;-82
2023/03/13 00:49:32;;;;;;;1.35;1.15;;;;;;;;;;5083226;28;20031;-82
2023/03/13 00:51:58;;;;;;;0.77;0.77;;;;;;;;;;5088955;28;20024;-82
2023/03/13 00:54:23;;;;;;;0.52;0.52;;;;;;;;;;5091385;28;20022;-83
2023/03/13 00:56:49;;;;;;;1.38;1.02;;;;;;;;;;5085212;28;20035;-83
2023/03/13 00:59:15;;;;;;;0.50;0.50;;;;;;;;;;5083417;28;20383;-84
2023/03/13 01:01:40;;;;;;;0.40;0.40;;;;;;;;;;5083777;28;20024;-85
2023/03/13 01:04:09;;;;;;;0.70;0.70;;;;;;;;;;5088024;28;20032;-84
2023/03/13 01:06:37;;;;;;;1.98;1.05;;;;;;;;;;5086400;28;20073;-83
2023/03/13 01:09:13;;;;;;;0.40;0.40;;;;;;;;;;5083960;28;20111;-85
2023/03/13 01:11:41;;;;;;;1.27;1.05;;;;;;;;;;5083552;28;20024;-84
2023/03/13 01:14:11;;;;;;;2.63;0.75;;;;;;;;;;5081929;28;20024;-85
2023/03/13 01:16:37;;;;;;;0.60;0.60;;;;;;;;;;5086618;28;20115;-84
2023/03/13 01:19:07;;;;;;;0.50;0.22;;;;;;;;;;5086219;28;20032;-85
2023/03/13 01:21:32;;;;;;;1.92;0.93;;;;;;;;;;5086637;28;20323;-84
2023/03/13 01:23:58;;;;;;;2.42;0.95;;;;;;;;;;5106692;28;20099;-87
2023/03/13 01:26:25;;;;;;;2.35;1.95;;;;;;;;;;5088053;28;20024;-84
2023/03/13 01:28:51;;;;;;;0.68;0.68;;;;;;;;;;5089801;28;20475;-85
2023/03/13 01:31:25;;;;;;;1.05;0.77;;;;;;;;;;5086151;28;20035;-86
2023/03/13 01:33:54;;;;;;;1.08;0.70;;;;;;;;;;5084870;28;20032;-85
2023/03/13 01:36:20;;;;;;;0.60;0.60;;;;;;;;;;5083529;28;20024;-86
2023/03/13 01:38:51;;;;;;;1.17;0.80;;;;;;;;;;5080197;28;20640;-84
2023/03/13 01:41:18;;;;;;;1.27;1.08;;;;;;;;;;5082400;28;20028;-84
2023/03/13 01:43:44;;;;;;;1.27;1.10;;;;;;;;;;5084143;28;20052;-85
2023/03/13 01:46:17;;;;;;;0.75;0.75;;;;;;;;;;5083853;28;20107;-81
2023/03/13 01:48:54;;;;;;;0.47;0.47;;;;;;;;;;5087033;28;20031;-81
2023/03/13 01:51:38;;;;;;;0.52;0.52;;;;;;;;;;5079882;28;20043;-81
2023/03/13 01:54:27;;;;;;;0.30;0.30;;;;;;;;;;5106480;28;20116;-80
2023/03/13 01:56:57;;;;;;;0.63;0.60;;;;;;;;;;5079905;28;20040;-81
2023/03/13 01:59:26;;;;;;;0.63;0.50;;;;;;;;;;5086814;28;20039;-81
2023/03/13 02:01:55;;;;;;;1.02;0.98;;;;;;;;;;5082904;28;20027;-82
2023/03/13 02:04:22;;;;;;;0.35;0.35;;;;;;;;;;5082237;28;20025;-84
2023/03/13 02:06:53;;;;;;;0.47;0.47;;;;;;;;;;5081807;28;20028;-83
2023/03/13 02:09:23;;;;;;;1.83;1.67;;;;;;;;;;5084560;28;20024;-83
2023/03/13 02:11:53;;;;;;;;;;;;;;;;;;5086105;28;20099;-83
2023/03/13 02:14:22;;;;;;;0.30;0.30;;;;;;;;;;5079312;28;19912;-83
2023/03/13 02:16:50;;;;;;;1.35;0.77;;;;;;;;;;5080885;28;20395;-83
2023/03/13 02:19:35;;;;;;;0.38;0.35;;;;;;;;;;5082913;28;20361;-82
2023/03/13 02:22:27;;;;;;;0.60;0.60;;;;;;;;;;5081074;28;20025;-83
2023/03/13 02:25:14;;;;;;;0.73;0.50;;;;;;;;;;5084695;28;20028;-85
2023/03/13 02:27:42;;;;;;;1.75;1.23;;;;;;;;;;5086595;28;20535;-86
2023/03/13 02:30:08;;;;;;;2.10;1.13;;;;;;;;;;5083841;28;20472;-84
2023/03/13 02:32:35;;;;;;;0.90;0.90;;;;;;;;;;5083836;28;20044;-85
2023/03/13 02:35:06;;;;;;;2.53;1.55;;;;;;;;;;5084475;28;20685;-87
2023/03/13 02:37:32;;;;;;;1.17;1.00;;;;;;;;;;5090038;28;20531;-85
2023/03/13 02:40:01;;;;;;;0.68;0.68;;;;;;;;;;5085569;28;20085;-84
2023/03/13 02:42:27;;;;;;;1.20;1.10;;;;;;;;;;5088401;28;20036;-82
2023/03/13 02:44:53;;;;;;;0.50;0.50;;;;;;;;;;5085818;28;20489;-83
2023/03/13 02:47:23;;;;;;;0.75;0.75;;;;;;;;;;5081107;28;20036;-82
2023/03/13 02:49:49;;;;;;;0.65;0.63;;;;;;;;;;5087534;28;20035;-82
2023/03/13 02:52:26;;;;;;;1.33;1.23;;;;;;;;;;5083274;28;20414;-83
2023/03/13 02:54:58;;;;;;;0.32;0.32;;;;;;;;;;5083972;28;20024;-83
2023/03/13 02:57:24;;;;;;;0.85;0.75;;;;;;;;;;5106398;28;20024;-85
2023/03/13 02:59:49;;;;;;;2.20;1.75;;;;;;;;;;5084728;28;20027;-82
2023/03/13 03:02:15;;;;;;;5.88;0.90;;;;;;;;;;5083148;28;20033;-83
2023/03/13 03:04:40;;;;;;;0.73;0.73;;;;;;;;;;5078155;28;20465;-82
2023/03/13 03:07:05;;;;;;;0.95;0.95;;;;;;;;;;5084399;28;20028;-82
2023/03/13 03:09:31;;;;;;;0.85;0.80;;;;;;;;;;5081726;28;20021;-82
2023/03/13 03:11:56;;;;;;;2.05;1.13;;;;;;;;;;5077709;28;20039;-83
2023/03/13 03:14:22;;;;;;;0.52;0.52;;;;;;;;;;5083838;28;20024;-82
2023/03/13 03:16:47;;;;;;;1.38;1.10;;;;;;;;;;5080845;28;20441;-82
2023/03/13 03:19:13;;;;;;;0.88;0.80;;;;;;;;;;5084294;28;20419;-82
2023/03/13 03:21:38;;;;;;;4.15;1.40;;;;;;;;;;5082085;28;20086;-83
2023/03/13 03:24:04;;;;;;;1.73;1.05;;;;;;;;;;5083538;28;20020;-82
2023/03/13 03:26:30;;;;;;;0.45;0.45;;;;;;;;;;5084680;28;20036;-83
2023/03/13 03:28:55;;;;;;;2.20;0.90;;;;;;;;;;5111835;28;20031;-81
2023/03/13 03:31:21;;;;;;;1.10;1.02;;;;;;;;;;5085279;28;20031;-81
2023/03/13 03:33:46;;;;;;;3.03;0.90;;;;;;;;;;5087687;28;20083;-80
2023/03/13 03:36:15;;;;;;;1.15;0.98;;;;;;;;;;5092562;28;20020;-81
2023/03/13 03:38:41;;;;;;;0.30;0.30;;;;;;;;;;5087857;28;20491;-81
2023/03/13 03:41:07;;;;;;;3.22;1.85;;;;;;;;;;5084277;28;20092;-81
2023/03/13 03:43:33;;;;;;;0.75;0.75;;;;;;;;;;5085047;28;20040;-82
2023/03/13 03:45:59;;;;;;;0.80;0.77;;;;;;;;;;5088381;28;20025;-81
2023/03/13 03:48:24;;;;;;;1.58;0.80;;;;;;;;;;5086022;28;20032;-82
2023/03/13 03:50:50;;;;;;;6.20;0.68;;;;;;;;;;5085118;28;20027;-81
2023/03/13 03:53:15;;;;;;;5.53;1.13;;;;;;;;;;5086880;28;20032;-81
2023/03/13 03:55:41;;;;;;;0.60;0.60;;;;;;;;;;5085226;28;20025;-81
2023/03/13 03:58:06;;;;;;;0.38;0.38;;;;;;;;;;5088220;28;20082;-82
2023/03/13 04:00:31;;;;;;;0.98;0.95;;;;;;;;;;5086013;28;20086;-81
2023/03/13 04:02:57;;;;;;;1.02;1.02;;;;;;;;;;5083558;28;20024;-81
2023/03/13 04:05:23;;;;;;;1.45;0.85;;;;;;;;;;5089639;28;20046;-81
2023/03/13 04:07:49;;;;;;;0.77;0.77;;;;;;;;;;5083229;28;20028;-81
2023/03/13 04:10:15;;;;;;;1.42;1.33;;;;;;;;;;5088022;28;20061;-82
2023/03/13 04:12:40;;;;;;;0.32;0.32;;;;;;;;;;5085015;28;20051;-82
2023/03/13 04:15:06;;;;;;;1.10;0.63;;;;;;;;;;5082092;28;20107;-83
2023/03/13 04:17:32;;;;;;;3.75;1.55;;;;;;;;;;5084853;28;20438;-82
2023/03/13 04:19:58;;;;;;;0.57;0.55;;;;;;;;;;5088229;28;20024;-83
2023/03/13 04:22:24;;;;;;;0.57;0.50;;;;;;;;;;5086270;28;20031;-83
2023/03/13 04:24:49;;;;;;;1.17;1.10;;;;;;;;;;5085806;28;20051;-82
2023/03/13 04:27:14;;;;;;;1.88;1.42;;;;;;;;;;5083553;28;20107;-82
2023/03/13 04:29:40;;;;;;;0.75;0.75;;;;;;;;;;5082338;28;20028;-82
2023/03/13 04:32:06;;;;;;;0.73;0.73;;;;;;;;;;5080551;28;20506;-82
2023/03/13 04:34:31;;;;;;;1.33;0.88;;;;;;;;;;5083641;28;20111;-82
2023/03/13 04:36:58;;;;;;;0.85;0.75;;;;;;;;;;5086690;28;20048;-82
2023/03/13 04:39:24;;;;;;;2.75;1.15;;;;;;;;;;5086497;28;20081;-80
2023/03/13 04:41:53;;;;;;;0.50;0.50;;;;;;;;;;5088228;28;20364;-82
2023/03/13 04:44:19;;;;;;;0.52;0.52;;;;;;;;;;5087568;28;20426;-85
2023/03/13 04:46:45;;;;;;;0.35;0.35;;;;;;;;;;5086856;28;20032;-83
2023/03/13 04:49:10;;;;;;;0.50;0.50;;;;;;;;;;5082564;28;20028;-82
2023/03/13 04:51:36;;;;;;;1.48;0.65;;;;;;;;;;5083800;28;20023;-84
2023/03/13 04:54:01;;;;;;;1.52;0.57;;;;;;;;;;5086620;28;20028;-84
2023/03/13 04:56:30;;;;;;;0.90;0.90;;;;;;;;;;5084386;28;20463;-84
2023/03/13 04:58:58;;;;;;;0.57;0.57;;;;;;;;;;5086574;28;20467;-83
2023/03/13 05:01:23;;;;;;;0.40;0.40;;;;;;;;;;5079081;28;20571;-84
2023/03/13 05:03:49;;;;;;;0.35;0.35;;;;;;;;;;5085150;28;20107;-83
2023/03/13 05:06:14;;;;;;;1.02;0.93;;;;;;;;;;5083864;28;21321;-84
2023/03/13 05:08:40;;;;;;;0.50;0.50;;;;;;;;;;5083841;28;20029;-84
2023/03/13 05:11:05;;;;;;;0.63;0.63;;;;;;;;;;5087428;28;20498;-82
2023/03/13 05:13:31;;;;;;;1.55;0.82;;;;;;;;;;5087665;28;20036;-81
2023/03/13 05:15:56;;;;;;;0.50;0.50;;;;;;;;;;5083356;28;20027;-84
2023/03/13 05:18:22;;;;;;;0.50;0.50;;;;;;;;;;5084956;28;20027;-83
2023/03/13 05:20:47;;;;;;;3.50;1.48;;;;;;;;;;5088772;28;20071;-84
2023/03/13 05:23:13;;;;;;;1.98;1.25;;;;;;;;;;5080570;28;20114;-83
2023/03/13 05:25:38;;;;;;;1.05;1.05;;;;;;;;;;5107574;28;20032;-83
2023/03/13 05:28:03;;;;;;;0.70;0.70;;;;;;;;;;5084166;28;20043;-82
2023/03/13 05:30:29;;;;;;;2.08;1.63;;;;;;;;;;5109180;28;20031;-82
2023/03/13 05:32:54;;;;;;;3.35;1.70;;;;;;;;;;5083634;28;20405;-85
2023/03/13 05:35:20;;;;;;;0.57;0.55;;;;;;;;;;5083650;28;20071;-82
2023/03/13 05:37:46;;;;;;;6.45;2.00;;;;;;;;;;5087789;28;20032;-83
2023/03/13 05:40:12;;;;;;;4.30;2.28;;;;;;;;;;5084450;28;20024;-79
2023/03/13 05:42:38;;;;;;;1.00;0.98;;;;;;;;;;5081833;28;20475;-79
2023/03/13 05:45:04;;;;;;;3.88;1.58;;;;;;;;;;5084757;28;20040;-79
2023/03/13 05:47:29;;;;;;;0.70;0.70;;;;;;;;;;5081888;28;20028;-79
2023/03/13 05:49:55;;;;;;;4.15;1.98;;;;;;;;;;5086118;28;20099;-79
2023/03/13 05:52:20;;;;;;;1.52;1.25;;;;;;;;;;5079007;28;20032;-79
2023/03/13 05:54:46;;;;;;;2.15;1.92;;;;;;;;;;5082219;28;20024;-79
2023/03/13 05:57:11;;;;;;;1.75;1.63;;;;;;;;;;5081902;28;20058;-79
2023/03/13 05:59:37;;;;;;;6.00;2.00;;;;;;;;;;5083876;28;20428;-79
2023/03/13 06:02:02;;;;;;;1.40;1.30;;;;;;;;;;5080460;28;20428;-80
2023/03/13 06:04:27;;;;;;;2.92;1.65;;;;;;;;;;5082871;28;20055;-81
2023/03/13 06:06:53;;;;;;;3.13;1.75;;;;;;;;;;5081841;28;20020;-80
2023/03/13 06:09:19;;;;;;;4.68;3.22;;;;;;;;;;5076434;28;20023;-79
2023/03/13 06:11:44;;;;;;;4.32;3.55;;;;;;;;;;5084293;28;20032;-80
2023/03/13 06:14:10;;;;;;;3.30;1.65;;;;;;;;;;5081975;28;20031;-79
2023/03/13 06:16:35;;;;;;;1.52;1.42;;;;;;;;;;5082848;28;20027;-82
2023/03/13 06:19:01;;;;;;;4.03;2.08;;;;;;;;;;5084739;28;20054;-82
2023/03/13 06:21:27;;;;;;;1.90;1.80;;;;;;;;;;5083031;28;20060;-83
2023/03/13 06:23:54;;;;;;;2.28;2.08;;;;;;;;;;5081954;28;20028;-82
2023/03/13 06:26:19;;;;;;;1.38;1.17;;;;;;;;;;5082400;28;20051;-82
2023/03/13 06:28:44;;;;;;;2.15;1.95;;;;;;;;;;5083105;28;20565;-81
2023/03/13 06:31:10;;;;;;;3.08;2.08;;;;;;;;;;5084819;28;20055;-81
2023/03/13 06:33:36;;;;;;;3.08;2.40;;;;;;;;;;5102110;28;20128;-81
2023/03/13 06:36:03;;;;;;;3.60;2.60;;;;;;;;;;5081131;28;20026;-81
2023/03/13 06:38:28;;;;;;;3.95;1.35;;;;;;;;;;5089567;28;20032;-81
2023/03/13 06:40:54;;;;;;;4.10;2.88;;;;;;;;;;5082637;28;20411;-81
2023/03/13 06:43:20;;;;;;;2.83;2.58;;;;;;;;;;5079748;28;20029;-81
2023/03/13 06:45:46;;;;;;;2.30;2.10;;;;;;;;;;5082835;28;20038;-80
2023/03/13 06:48:11;;;;;;;1.42;1.33;;;;;;;;;;5081741;28;20131;-81
2023/03/13 06:50:38;;;;;;;7.25;2.45;;;;;;;;;;5080525;28;20086;-82
2023/03/13 06:53:03;;;;;;;2.17;1.45;;;;;;;;;;5081512;28;20443;-80
2023/03/13 06:55:29;;;;;;;2.38;2.08;;;;;;;;;;5081401;28;20052;-80
2023/03/13 06:57:54;;;;;;;2.38;1.67;;;;;;;;;;5103052;28;20020;-81
2023/03/13 07:00:20;;;;;;;3.10;2.72;;;;;;;;;;5079927;28;20032;-82
2023/03/13 07:02:46;;;;;;;7.60;2.60;;;;;;;;;;5083488;28;20020;-81
2023/03/13 07:05:13;;;;;;;4.68;2.28;;;;;;;;;;5084011;28;20039;-80
2023/03/13 07:07:39;;;;;;;2.78;2.58;;;;;;;;;;5104458;28;20036;-79
2023/03/13 07:10:05;;;;;;;1.38;1.27;;;;;;;;;;5079774;28;20035;-80
2023/03/13 07:12:30;;;;;;;2.67;2.13;;;;;;;;;;5084005;28;20020;-79
2023/03/13 07:14:56;;;;;;;4.97;2.20;;;;;;;;;;5075804;28;20145;-81
2023/03/13 07:17:21;;;;;;;4.15;2.58;;;;;;;;;;5086386;28;20376;-81
2023/03/13 07:19:47;;;;;;;3.88;2.92;;;;;;;;;;5078468;28;20027;-81
2023/03/13 07:22:12;;;;;;;3.80;1.95;;;;;;;;;;5085361;28;20032;-82
2023/03/13 07:24:37;;;;;;;6.05;3.22;;;;;;;;;;5084528;28;20416;-82
2023/03/13 07:27:03;;;;;;;2.53;2.33;;;;;;;;;;5081517;28;20051;-82
2023/03/13 07:29:28;;;;;;;1.63;1.52;;;;;;;;;;5084357;28;20051;-81
2023/03/13 07:31:54;;;;;;;2.55;2.28;;;;;;;;;;5086592;28;20400;-81
2023/03/13 07:34:19;;;;;;;1.38;1.38;;;;;;;;;;5083219;28;20068;-81
2023/03/13 07:36:44;;;;;;;8.57;3.83;;;;;;;;;;5085568;28;20027;-82
2023/03/13 07:39:10;;;;;;;8.18;2.90;;;;;;;;;;5086972;28;20369;-83
2023/03/13 07:41:35;;;;;;;3.85;2.20;;;;;;;;;;5085945;28;20035;-82
2023/03/13 07:44:00;;;;;;;1.42;1.33;;;;;;;;;;5081960;28;20019;-81
2023/03/13 07:46:26;;;;;;;2.45;2.25;;;;;;;;;;5103353;28;20177;-82
2023/03/13 07:48:52;;;;;;;4.30;2.65;;;;;;;;;;5084275;28;20060;-82
2023/03/13 07:51:23;;;;;;;7.03;2.25;;;;;;;;;;5079531;28;20387;-80
2023/03/13 07:53:50;;;;;;;1.25;1.15;;;;;;;;;;5080324;28;20024;-81
2023/03/13 07:56:21;;;;;;;2.88;1.75;;;;;;;;;;5080562;28;20566;-80
2023/03/13 07:58:46;;;;;;;1.88;1.77;;;;;;;;;;5080091;28;20033;-80
2023/03/13 08:01:16;;;;;;;3.22;2.55;;;;;;;;;;5075952;28;20125;-81
2023/03/13 08:03:42;;;;;;;2.67;2.28;;;;;;;;;;5104827;28;20100;-83
2023/03/13 08:06:13;;;;;;;3.15;1.85;;;;;;;;;;5084109;28;20028;-82
2023/03/13 08:08:39;;;;;;;3.22;2.78;;;;;;;;;;5080382;28;20431;-80
2023/03/13 08:11:06;;;;;;;10.23;3.70;;;;;;;;;;5084189;28;20109;-81
2023/03/13 08:13:33;;;;;;;5.43;1.92;;;;;;;;;;5085133;28;20379;-81
2023/03/13 08:16:18;;;;;;;2.80;1.70;;;;;;;;;;5085830;28;20024;-81
2023/03/13 08:18:46;;;;;;;5.00;2.67;;;;;;;;;;5085500;28;20028;-81
2023/03/13 08:21:17;;;;;;;6.32;2.83;;;;;;;;;;5080686;28;20488;-83
2023/03/13 08:23:42;;;;;;;6.18;3.08;;;;;;;;;;5086234;28;20032;-82
2023/03/13 08:26:14;;;;;;;2.95;2.15;;;;;;;;;;5079552;28;20079;-80
2023/03/13 08:28:41;;;;;;;4.65;2.95;;;;;;;;;;5085503;28;20025;-80
2023/03/13 08:31:18;;;;;;;6.72;2.75;;;;;;;;;;5081150;28;20408;-81
2023/03/13 08:33:45;;;;;;;3.58;3.10;;;;;;;;;;5087079;28;20101;-81
2023/03/13 08:36:13;;;;;;;7.20;3.85;;;;;;;;;;5082421;28;20032;-81
2023/03/13 08:38:41;;;;;;;2.30;2.08;;;;;;;;;;5083548;28;20028;-82
2023/03/13 08:41:07;;;;;;;3.53;3.13;;;;;;;;;;5083775;28;20024;-81
2023/03/13 08:43:33;;;;;;;6.63;2.92;;;;;;;;;;5084702;28;20028;-81
2023/03/13 08:45:58;;;;;;;13.32;2.63;;;;;;;;;;5087745;28;20460;-81
2023/03/13 08:48:23;;;;;;;2.97;2.40;;;;;;;;;;5086069;28;20024;-81
2023/03/13 08:51:17;;;;;;;4.20;2.80;;;;;;;;;;5084235;28;20028;-81
2023/03/13 08:53:43;;;;;;;22.38;5.45;;;;;;;;;;5083249;28;20535;-82
2023/03/13 08:56:10;;;;;;;7.28;3.33;;;;;;;;;;5084934;28;20124;-82
2023/03/13 08:58:36;;;;;;;5.68;4.88;;;;;;;;;;5084189;28;20468;-82
2023/03/13 09:01:04;;;;;;;3.38;2.53;;;;;;;;;;5086944;28;20043;-82
2023/03/13 09:03:30;;;;;;;5.07;3.30;;;;;;;;;;5103863;28;20024;-82
2023/03/13 09:06:00;;;;;;;5.75;3.40;;;;;;;;;;5079334;28;20029;-82
2023/03/13 09:08:26;;;;;;;3.92;3.10;;;;;;;;;;5086081;28;20472;-82
2023/03/13 09:10:56;;;;;;;7.57;5.28;;;;;;;;;;5088006;28;20035;-82
2023/03/13 09:13:22;;;;;;;15.18;5.15;;;;;;;;;;5082322;28;20083;-82
2023/03/13 09:15:54;;;;;;;3.83;3.45;;;;;;;;;;5082546;28;20484;-83
2023/03/13 09:18:20;;;;;;;8.50;3.05;;;;;;;;;;5083527;28;20035;-82
2023/03/13 09:20:45;;;;;;;7.97;4.57;;;;;;;;;;5085049;28;20021;-82
2023/03/13 09:23:11;;;;;;;2.55;2.22;;;;;;;;;;5085542;28;21241;-82
2023/03/13 09:25:39;;;;;;;3.70;3.22;;;;;;;;;;5080288;28;20162;-81
2023/03/13 09:28:05;;;;;;;3.42;3.10;;;;;;;;;;5086378;28;20400;-82
2023/03/13 09:30:30;;;;;;;3.25;2.95;;;;;;;;;;5087886;28;20036;-82
2023/03/13 09:32:55;;;;;;;8.63;3.15;;;;;;;;;;5086872;28;20062;-81
2023/03/13 09:35:21;;;;;;;6.10;4.63;;;;;;;;;;5083175;28;20039;-81
2023/03/13 09:37:46;;;;;;;4.32;2.67;;;;;;;;;;5082523;28;20042;-81
2023/03/13 09:40:15;;;;;;;5.82;3.13;;;;;;;;;;5076872;28;20016;-81
2023/03/13 09:42:52;;;;;;;4.45;3.65;;;;;;;;;;5083540;28;20040;-82
2023/03/13 09:45:30;;;;;;;6.03;3.17;;;;;;;;;;5085686;28;20039;-81
2023/03/13 09:48:04;;;;;;;2.78;2.58;;;;;;;;;;5083775;28;20388;-81
2023/03/13 09:50:35;;;;;;;4.78;3.47;;;;;;;;;;5081029;28;20024;-83
2023/03/13 09:53:13;;;;;;;3.65;3.25;;;;;;;;;;5107060;28;20036;-84
2023/03/13 09:55:41;;;;;;;4.97;3.15;;;;;;;;;;5089063;28;20039;-82
2023/03/13 09:58:18;;;;;;;5.80;3.85;;;;;;;;;;5081863;28;20032;-81
2023/03/13 10:01:03;;;;;;;15.75;10.18;;;;;;;;;;5087549;28;20081;-81
2023/03/13 10:03:43;;;;;;;11.25;5.55;;;;;;;;;;5078582;28;20040;-82
2023/03/13 10:06:29;;;;;;;5.13;3.15;;;;;;;;;;5077701;28;20154;-80
2023/03/13 10:08:59;;;;;;;5.47;3.03;;;;;;;;;;5083555;28;20058;-80
2023/03/13 10:11:43;;;;;;;6.45;2.95;;;;;;;;;;5079541;28;20028;-81
2023/03/13 10:14:20;;;;;;;3.28;2.97;;;;;;;;;;5086562;28;20098;-81
2023/03/13 10:16:53;;;;;;;2.20;2.00;;;;;;;;;;5081056;28;20107;-81
2023/03/13 10:19:26;;;;;;;4.45;2.97;;;;;;;;;;5087287;28;20023;-81
2023/03/13 10:21:54;;;;;;;8.75;5.20;;;;;;;;;;5082341;28;20107;-80
2023/03/13 10:24:31;;;;;;;5.28;2.78;;;;;;;;;;5089049;28;20178;-80
2023/03/13 10:26:57;;;;;;;5.78;3.95;;;;;;;;;;5077471;28;20034;-79
2023/03/13 10:29:25;;;;;;;12.20;4.20;;;;;;;;;;5079691;28;20054;-81
2023/03/13 10:32:02;;;;;;;8.93;4.72;;;;;;;;;;5082234;28;20480;-81
2023/03/13 10:34:54;;;;;;;5.35;3.17;;;;;;;;;;5089128;28;20047;-82
2023/03/13 10:37:25;;;;;;;7.10;4.88;;;;;;;;;;5090144;28;20360;-81
2023/03/13 10:39:51;;;;;;;5.53;4.45;;;;;;;;;;5084032;28;20081;-84
2023/03/13 10:42:22;;;;;;;12.75;3.63;;;;;;;;;;5089304;28;20084;-81
2023/03/13 10:44:48;;;;;;;10.43;4.00;;;;;;;;;;5086288;28;20073;-82
2023/03/13 10:47:14;;;;;;;7.80;5.00;;;;;;;;;;5085455;28;20491;-81
2023/03/13 10:49:51;;;;;;;9.20;4.35;;;;;;;;;;5083815;28;20024;-82
2023/03/13 10:52:32;;;;;;;12.02;6.13;;;;;;;;;;5086397;28;20093;-81
2023/03/13 10:55:05;;;;;;;8.55;4.82;;;;;;;;;;5079750;28;20420;-81
2023/03/13 10:57:33;;;;;;;5.18;2.80;;;;;;;;;;5078079;28;20431;-82
2023/03/13 11:00:06;;;;;;;5.25;3.63;;;;;;;;;;5089794;28;20658;-84
2023/03/13 11:02:34;;;;;;;4.57;3.75;;;;;;;;;;5080846;28;20062;-81
2023/03/13 11:05:01;;;;;;;16.02;9.98;;;;;;;;;;5083514;28;20036;-82
2023/03/13 11:07:37;;;;;;;6.65;4.75;;;;;;;;;;5103698;28;20039;-81
2023/03/13 11:10:23;;;;;;;12.85;5.85;;;;;;;;;;5086897;28;20103;-83
2023/03/13 11:12:53;;;;;;;6.55;4.25;;;;;;;;;;5080903;28;20032;-82
2023/03/13 11:15:50;;;;;;;5.43;3.90;;;;;;;;;;5081241;28;20028;-82
2023/03/13 11:18:34;;;;;;;6.28;3.42;;;;;;;;;;5082164;28;20037;-81
2023/03/13 11:21:01;;;;;;;6.65;3.45;;;;;;;;;;5080068;28;20027;-81
2023/03/13 11:23:28;;;;;;;4.65;2.60;;;;;;;;;;5084394;28;20032;-81
2023/03/13 11:26:11;;;;;;;4.80;3.78;;;;;;;;;;5085616;28;20106;-82
2023/03/13 11:29:01;;;;;;;4.80;2.97;;;;;;;;;;5085390;28;20032;-82
2023/03/13 11:31:41;;;;;;;4.25;3.03;;;;;;;;;;5086472;28;20024;-82
2023/03/13 11:34:47;;;;;;;5.72;4.03;;;;;;;;;;5102666;28;20105;-81
2023/03/13 11:37:15;;;;;;;4.72;2.85;;;;;;;;;;5080498;28;20016;-82
2023/03/13 11:40:08;;;;;;;5.13;3.70;;;;;;;;;;5082055;28;20032;-82
2023/03/13 11:42:39;;;;;;;6.85;4.70;;;;;;;;;;5079717;28;20456;-82
2023/03/13 11:45:42;;;;;;;5.00;4.18;;;;;;;;;;5080026;28;20029;-82
2023/03/13 11:48:28;;;;;;;8.55;4.10;;;;;;;;;;5088265;28;20038;-83
2023/03/13 11:50:59;;;;;;;6.95;4.20;;;;;;;;;;5086201;28;20048;-82
2023/03/13 11:53:25;;;;;;;8.02;4.65;;;;;;;;;;5109448;28;20063;-82
2023/03/13 11:55:55;;;;;;;11.35;5.88;;;;;;;;;;5081975;28;20055;-82
2023/03/13 11:58:55;;;;;;;6.70;4.78;;;;;;;;;;5086901;28;20060;-81
2023/03/13 12:01:25;;;;;;;4.65;3.40;;;;;;;;;;5081095;28;20387;-81
2023/03/13 12:04:15;;;;;;;7.90;4.60;;;;;;;;;;5085861;28;20036;-82
2023/03/13 12:06:50;;;;;;;7.80;5.60;;;;;;;;;;5085901;28;20023;-81
2023/03/13 12:09:24;;;;;;;7.28;4.20;;;;;;;;;;5074551;28;20035;-80
2023/03/13 12:12:03;;;;;;;8.38;4.10;;;;;;;;;;5086589;28;20032;-81
2023/03/13 12:15:15;;;;;;;6.88;4.35;;;;;;;;;;5089725;28;20024;-81
2023/03/13 12:18:11;;;;;;;9.30;4.95;;;;;;;;;;5091343;28;20471;-81
2023/03/13 12:20:43;;;;;;;7.75;4.40;;;;;;;;;;5105363;28;20542;-81
2023/03/13 12:23:19;;;;;;;7.95;4.43;;;;;;;;;;5082782;28;20426;-81
2023/03/13 12:26:00;;;;;;;6.38;4.60;;;;;;;;;;5084720;28;20547;-81
2023/03/13 12:28:38;;;;;;;6.22;3.85;;;;;;;;;;5105922;28;20471;-81
2023/03/13 12:31:28;;;;;;;11.55;5.03;;;;;;;;;;5080488;28;20480;-82
2023/03/13 12:34:12;;;;;;;;;;;;;;;;;;5089319;28;20048;-82
2023/03/13 12:36:40;;;;;;;6.38;4.63;;;;;;;;;;5078324;28;20671;-80
2023/03/13 12:39:25;;;;;;;5.07;3.92;;;;;;;;;;5086240;28;20186;-81
2023/03/13 12:41:59;;;;;;;8.07;4.80;;;;;;;;;;5084480;28;20024;-81
2023/03/13 12:44:25;;;;;;;7.15;5.07;;;;;;;;;;5082240;28;20032;-82
2023/03/13 12:47:15;;;;;;;7.88;4.90;;;;;;;;;;5089357;28;20045;-82
2023/03/13 12:50:03;;;;;;;;;;;;;;;;;;5092870;28;20027;-83
2023/03/13 12:52:46;;;;;;;10.00;5.43;;;;;;;;;;5082077;28;19920;-82
2023/03/13 12:55:42;;;;;;;8.88;5.10;;;;;;;;;;5089644;28;20027;-81
2023/03/13 12:58:34;;;;;;;9.90;4.25;;;;;;;;;;5104054;28;20472;-81
2023/03/13 13:01:03;;;;;;;6.63;5.03;;;;;;;;;;5082060;28;20107;-81
2023/03/13 13:03:35;;;;;;;9.07;5.65;;;;;;;;;;5088678;28;20479;-81
2023/03/13 13:06:07;;;;;;;9.40;5.53;;;;;;;;;;5078213;28;20522;-81
2023/03/13 13:08:47;;;;;;;7.57;5.13;;;;;;;;;;5081546;28;20024;-81
2023/03/13 13:11:38;;;;;;;9.05;4.85;;;;;;;;;;5087925;28;20115;-81
2023/03/13 13:14:18;;;;;;;9.45;4.93;;;;;;;;;;5089033;28;20031;-82
2023/03/13 13:16:47;;;;;;;13.32;4.47;;;;;;;;;;5085085;28;20031;-81
2023/03/13 13:19:22;;;;;;;7.50;5.30;;;;;;;;;;5092184;28;20629;-82
2023/03/13 13:22:25;;;;;;;7.50;4.40;;;;;;;;;;5087852;28;20111;-82
2023/03/13 13:25:14;;;;;;;8.05;4.68;;;;;;;;;;5091677;28;20028;-81
2023/03/13 13:27:39;;;;;;;10.20;5.10;;;;;;;;;;5088734;28;20063;-81
2023/03/13 13:30:17;;;;;;;10.70;5.88;;;;;;;;;;5088678;28;20067;-79
2023/03/13 13:32:48;;;;;;;7.53;4.80;;;;;;;;;;5080786;28;20086;-81
2023/03/13 13:35:33;;;;;;;9.45;5.55;;;;;;;;;;5086249;28;20024;-81
2023/03/13 13:38:27;;;;;;;8.05;5.22;;;;;;;;;;5081013;28;20717;-83
2023/03/13 13:40:58;;;;;;;10.48;5.15;;;;;;;;;;5081610;28;20411;-80
2023/03/13 13:43:24;;;;;;;8.82;4.18;;;;;;;;;;5086352;28;20032;-81
2023/03/13 13:46:01;;;;;;;8.52;5.20;;;;;;;;;;5073930;28;20043;-82
2023/03/13 13:48:36;;;;;;;9.82;5.75;;;;;;;;;;5088116;28;20032;-82
2023/03/13 13:51:11;;;;;;;10.70;5.47;;;;;;;;;;5091279;28;20103;-82
2023/03/13 13:54:18;;;;;;;8.15;6.30;;;;;;;;;;5084476;28;20520;-80
2023/03/13 13:56:48;;;;;;;8.57;5.05;;;;;;;;;;5067045;28;20067;-81
2023/03/13 13:59:45;;;;;;;7.28;4.28;;;;;;;;;;5082579;28;20140;-82
2023/03/13 14:02:15;;;;;;;7.88;4.65;;;;;;;;;;5083973;28;20047;-82
2023/03/13 14:05:01;;;;;;;8.13;4.07;;;;;;;;;;5090568;28;20024;-80
2023/03/13 14:07:35;;;;;;;12.07;5.45;;;;;;;;;;5090081;28;20056;-80
2023/03/13 14:10:20;;;;;;;7.25;5.25;;;;;;;;;;5088268;28;20020;-80
2023/03/13 14:12:56;;;;;;;6.70;4.20;;;;;;;;;;5087693;28;20028;-79
2023/03/13 14:15:24;;;;;;;7.15;4.93;;;;;;;;;;5080141;28;20040;-80
2023/03/13 14:18:26;;;;;;;10.35;5.75;;;;;;;;;;5081615;28;20028;-80
2023/03/13 14:20:58;;;;;;;15.45;5.10;;;;;;;;;;5082338;28;20513;-80
2023/03/13 14:23:57;;;;;;;10.00;5.95;;;;;;;;;;5082740;28;20020;-79
2023/03/13 14:26:25;;;;;;;9.93;5.32;;;;;;;;;;5077346;28;20052;-80
2023/03/13 14:29:01;;;;;;;7.28;5.18;;;;;;;;;;5076817;28;20443;-79
2023/03/13 14:31:33;;;;;;;7.95;4.15;;;;;;;;;;5077197;28;20112;-81
2023/03/13 14:34:02;;;;;;;8.13;4.57;;;;;;;;;;5102310;28;20051;-81
2023/03/13 14:36:28;;;;;;;6.87;4.87;;;;;;;;;;5084726;28;20442;-80
2023/03/13 14:38:58;;;;;;;13.50;5.05;;;;;;;;;;5078914;28;20127;-83
2023/03/13 14:41:41;;;;;;;7.05;4.75;;;;;;;;;;5080060;28;20028;-81
2023/03/13 14:44:24;;;;;;;12.27;5.13;;;;;;;;;;5079139;28;20028;-80
2023/03/13 14:47:03;;;;;;;7.93;5.05;;;;;;;;;;5080648;28;20055;-81
2023/03/13 14:49:30;;;;;;;6.40;4.33;;;;;;;;;;5081159;28;20105;-81
2023/03/13 14:52:12;;;;;;;12.85;4.90;;;;;;;;;;5075585;28;20024;-81
2023/03/13 14:55:13;;;;;;;6.15;4.28;;;;;;;;;;5083480;28;20496;-84
2023/03/13 14:57:54;;;;;;;10.50;4.45;;;;;;;;;;5086961;28;20027;-84
2023/03/13 15:00:37;;;;;;;8.30;4.65;;;;;;;;;;5083757;28;21371;-84
2023/03/13 15:03:15;;;;;;;7.38;4.22;;;;;;;;;;5082575;28;20472;-83
2023/03/13 15:05:45;;;;;;;11.80;5.97;;;;;;;;;;5082515;28;20472;-82